Time;durP1;ratioP1;P1;durP2;ratioP2;P2;SDS_P1;SDS_P2;PMS_P1;PMS_P2;Temp;Humidity;BMP_temperature;BMP_pressure;BME280_temperature;BME280_humidity;BME280_pressure;Samples;Min_cycle;Max_cycle;Signal;HPM_P1;HPM_P2
2023/10/02 00:01:17;;;;;;;;;;;;;;;;;;5096782;28;19920;-72
2023/10/02 00:03:42;;;;;;;;;;;;;;;;;;5115418;28;19958;-72
2023/10/02 00:06:11;;;;;;;;;;;;;;;;;;5115040;28;19962;-72
2023/10/02 00:08:42;;;;;;;;;;;;;;;;;;5115464;28;19915;-72
2023/10/02 00:11:08;;;;;;;;;;;;;;;;;;5115375;28;19911;-72
2023/10/02 00:13:33;;;;;;;;;;;;;;;;;;5115242;28;19912;-71
2023/10/02 00:15:59;;;;;;;;;;;;;;;;;;5114982;28;19923;-72
2023/10/02 00:18:27;;;;;;;;;;;;;;;;;;5113915;28;19941;-72
2023/10/02 00:21:17;;;;;;;;;;;;;;;;;;5077661;28;19916;-74
2023/10/02 00:23:59;;;;;;;;;;;;;;;;;;5095452;28;19998;-73
2023/10/02 00:26:24;;;;;;;;;;;;;;;;;;5079721;28;20407;-73
2023/10/02 00:28:50;;;;;;;;;;;;;;;;;;5112079;28;19927;-73
2023/10/02 00:31:35;;;;;;;;;;;;;;;;;;5100563;28;19926;-73
2023/10/02 00:34:01;;;;;;;;;;;;;;;;;;5115338;28;19920;-73
2023/10/02 00:36:29;;;;;;;;;;;;;;;;;;5114915;28;19923;-72
2023/10/02 00:38:55;;;;;;;;;;;;;;;;;;5096552;28;19915;-73
2023/10/02 00:41:20;;;;;;;;;;;;;;;;;;5113932;28;19923;-72
2023/10/02 00:43:46;;;;;;;;;;;;;;;;;;5112532;28;20022;-72
2023/10/02 00:46:23;;;;;;;;;;;;;;;;;;5113024;28;19915;-72
2023/10/02 00:48:48;;;;;;;;;;;;;;;;;;5116208;28;19950;-72
2023/10/02 00:51:14;;;;;;;;;;;;;;;;;;5083621;28;19979;-72
2023/10/02 00:53:40;;;;;;;;;;;;;;;;;;5091172;28;20011;-73
2023/10/02 00:56:19;;;;;;;;;;;;;;;;;;5092586;28;19920;-72
2023/10/02 00:58:44;;;;;;;;;;;;;;;;;;5094484;28;19977;-72
2023/10/02 01:01:11;;;;;;;;;;;;;;;;;;5094206;28;19912;-73
2023/10/02 01:04:07;;;;;;;;;;;;;;;;;;5094770;28;19964;-72
2023/10/02 01:06:22;;;;;;;;;;;;;;;;;;5095931;28;19912;-73
2023/10/02 01:08:49;;;;;;;;;;;;;;;;;;5096310;28;19920;-73
2023/10/02 01:11:14;;;;;;;;;;;;;;;;;;5096093;28;19916;-73
2023/10/02 01:13:40;;;;;;;;;;;;;;;;;;5078109;28;19933;-73
2023/10/02 01:16:07;;;;;;;;;;;;;;;;;;5095867;28;19924;-73
2023/10/02 01:18:33;;;;;;;;;;;;;;;;;;5096116;28;20299;-73
2023/10/02 01:20:59;;;;;;;;;;;;;;;;;;5078835;28;19908;-73
2023/10/02 01:23:25;;;;;;;;;;;;;;;;;;5114118;28;19923;-73
2023/10/02 01:25:50;;;;;;;;;;;;;;;;;;5114172;28;19916;-73
2023/10/02 01:28:20;;;;;;;;;;;;;;;;;;5114174;28;20295;-73
2023/10/02 01:30:47;;;;;;;;;;;;;;;;;;5114278;28;19920;-73
2023/10/02 01:33:14;;;;;;;;;;;;;;;;;;5113982;28;19923;-73
2023/10/02 01:35:40;;;;;;;;;;;;;;;;;;5113933;28;19919;-74
2023/10/02 01:38:12;;;;;;;;;;;;;;;;;;5095445;28;19920;-75
2023/10/02 01:40:38;;;;;;;;;;;;;;;;;;5114096;28;19959;-75
2023/10/02 01:43:12;;;;;;;;;;;;;;;;;;5095591;28;20023;-75
2023/10/02 01:45:42;;;;;;;;;;;;;;;;;;5095714;28;19916;-76
2023/10/02 01:48:08;;;;;;;;;;;;;;;;;;5078660;28;20432;-76
2023/10/02 01:50:35;;;;;;;;;;;;;;;;;;5113860;28;19915;-76
2023/10/02 01:53:03;;;;;;;;;;;;;;;;;;5113632;28;19961;-76
2023/10/02 01:55:29;;;;;;;;;;;;;;;;;;5095896;28;19978;-75
2023/10/02 01:57:54;;;;;;;;;;;;;;;;;;5095388;28;20375;-75
2023/10/02 02:00:23;;;;;;;;;;;;;;;;;;5095542;28;20374;-75
2023/10/02 02:03:14;;;;;;;;;;;;;;;;;;5113690;28;19915;-75
2023/10/02 02:05:34;;;;;;;;;;;;;;;;;;5095450;28;19916;-76
2023/10/02 02:08:21;;;;;;;;;;;;;;;;;;5113393;28;19989;-73
2023/10/02 02:10:46;;;;;;;;;;;;;;;;;;5113709;28;19916;-73
2023/10/02 02:13:13;;;;;;;;;;;;;;;;;;5113390;28;19920;-73
2023/10/02 02:15:38;;;;;;;;;;;;;;;;;;5113586;28;19916;-73
2023/10/02 02:18:04;;;;;;;;;;;;;;;;;;5113431;28;19923;-74
2023/10/02 02:20:57;;;;;;;;;;;;;;;;;;5113546;28;19916;-74
2023/10/02 02:23:22;;;;;;;;;;;;;;;;;;5094958;28;19922;-74
2023/10/02 02:25:48;;;;;;;;;;;;;;;;;;5116488;28;19916;-73
2023/10/02 02:28:13;;;;;;;;;;;;;;;;;;5116875;28;19920;-74
2023/10/02 02:30:40;;;;;;;;;;;;;;;;;;5098762;28;20275;-74
2023/10/02 02:33:07;;;;;;;;;;;;;;;;;;5117059;28;19919;-75
2023/10/02 02:35:35;;;;;;;;;;;;;;;;;;5116619;28;20294;-73
2023/10/02 02:38:02;;;;;;;;;;;;;;;;;;5116751;28;19923;-73
2023/10/02 02:40:30;;;;;;;;;;;;;;;;;;5116774;28;19927;-73
2023/10/02 02:42:56;;;;;;;;;;;;;;;;;;5116595;28;19915;-74
2023/10/02 02:45:28;;;;;;;;;;;;;;;;;;5116611;28;19915;-72
2023/10/02 02:47:54;;;;;;;;;;;;;;;;;;5098307;28;20329;-74
2023/10/02 02:50:27;;;;;;;;;;;;;;;;;;5118146;28;20363;-73
2023/10/02 02:53:16;;;;;;;;;;;;;;;;;;5100714;28;19943;-73
2023/10/02 02:55:38;;;;;;;;;;;;;;;;;;5118391;28;19925;-73
2023/10/02 02:58:05;;;;;;;;;;;;;;;;;;5116189;28;19966;-74
2023/10/02 03:00:31;;;;;;;;;;;;;;;;;;5097948;28;19912;-73
2023/10/02 03:02:57;;;;;;;;;;;;;;;;;;5103869;28;20432;-76
2023/10/02 03:05:22;;;;;;;;;;;;;;;;;;5090609;28;19916;-75
2023/10/02 03:07:49;;;;;;;;;;;;;;;;;;5091847;28;20050;-75
2023/10/02 03:10:16;;;;;;;;;;;;;;;;;;5073633;28;20371;-74
2023/10/02 03:12:45;;;;;;;;;;;;;;;;;;5091800;28;19916;-75
2023/10/02 03:15:12;;;;;;;;;;;;;;;;;;5091755;28;19923;-73
2023/10/02 03:17:41;;;;;;;;;;;;;;;;;;5073669;28;19916;-73
2023/10/02 03:20:22;;;;;;;;;;;;;;;;;;5057034;28;19927;-73
2023/10/02 03:22:51;;;;;;;;;;;;;;;;;;5073565;28;20019;-73
2023/10/02 03:28:03;;;;;;;;;;;;;;;;;;5077529;28;19920;-73
2023/10/02 03:30:35;;;;;;;;;;;;;;;;;;5091417;28;19920;-73
2023/10/02 03:33:00;;;;;;;;;;;;;;;;;;5091495;28;19920;-73
2023/10/02 03:35:26;;;;;;;;;;;;;;;;;;5090198;28;19938;-73
2023/10/02 03:37:51;;;;;;;;;;;;;;;;;;5091600;28;19986;-73
2023/10/02 03:40:20;;;;;;;;;;;;;;;;;;5091728;28;19916;-73
2023/10/02 03:42:47;;;;;;;;;;;;;;;;;;5091775;28;20010;-73
2023/10/02 03:45:12;;;;;;;;;;;;;;;;;;5091250;28;19923;-73
2023/10/02 03:47:38;;;;;;;;;;;;;;;;;;5091526;28;19911;-73
2023/10/02 03:50:05;;;;;;;;;;;;;;;;;;5073171;28;19923;-73
2023/10/02 03:52:31;;;;;;;;;;;;;;;;;;5076968;28;19916;-73
2023/10/02 03:54:56;;;;;;;;;;;;;;;;;;5111563;28;19922;-73
2023/10/02 03:57:47;;;;;;;;;;;;;;;;;;5111343;28;19916;-73
2023/10/02 04:00:29;;;;;;;;;;;;;;;;;;5111355;28;19980;-73
2023/10/02 04:02:56;;;;;;;;;;;;;;;;;;5111440;28;19941;-73
2023/10/02 04:08:31;;;;;;;;;;;;;;;;;;5111458;28;19931;-73
2023/10/02 04:10:56;;;;;;;;;;;;;;;;;;5093042;28;20309;-75
2023/10/02 04:13:23;;;;;;;;;;;;;;;;;;5092542;28;19916;-74
2023/10/02 04:15:48;;;;;;;;;;;;;;;;;;5111206;28;20474;-74
2023/10/02 04:18:45;;;;;;;;;;;;;;;;;;5110846;28;19995;-74
2023/10/02 04:21:05;;;;;;;;;;;;;;;;;;5111500;28;19916;-75
2023/10/02 04:23:38;;;;;;;;;;;;;;;;;;5093113;28;20440;-75
2023/10/02 04:26:05;;;;;;;;;;;;;;;;;;5111058;28;19962;-73
2023/10/02 04:28:38;;;;;;;;;;;;;;;;;;5110408;28;20195;-73
2023/10/02 04:31:06;;;;;;;;;;;;;;;;;;5110689;28;19915;-73
2023/10/02 04:33:37;;;;;;;;;;;;;;;;;;5110271;28;20364;-73
2023/10/02 04:36:05;;;;;;;;;;;;;;;;;;5091901;28;20506;-73
2023/10/02 04:38:49;;;;;;;;;;;;;;;;;;5110278;28;19915;-73
2023/10/02 04:41:26;;;;;;;;;;;;;;;;;;5110213;28;19965;-73
2023/10/02 04:43:57;;;;;;;;;;;;;;;;;;5110472;28;19920;-73
2023/10/02 04:46:24;;;;;;;;;;;;;;;;;;5091799;28;20018;-73
2023/10/02 04:48:59;;;;;;;;;;;;;;;;;;5092267;28;19969;-73
2023/10/02 04:51:28;;;;;;;;;;;;;;;;;;5110035;28;19915;-72
2023/10/02 04:53:57;;;;;;;;;;;;;;;;;;5113490;28;19916;-73
2023/10/02 04:56:24;;;;;;;;;;;;;;;;;;5113346;28;19920;-73
2023/10/02 04:58:50;;;;;;;;;;;;;;;;;;5075861;28;19920;-74
2023/10/02 05:01:28;;;;;;;;;;;;;;;;;;5102863;28;20291;-75
2023/10/02 05:03:54;;;;;;;;;;;;;;;;;;5071674;28;20281;-74
2023/10/02 05:14:47;;;;;;;;;;;;;;;;;;5003352;28;19918;-73
2023/10/02 05:17:38;;;;;;;;;;;;;;;;;;5046805;28;19955;-73
2023/10/02 05:20:04;;;;;;;;;;;;;;;;;;5089250;28;20408;-74
2023/10/02 05:22:31;;;;;;;;;;;;;;;;;;5088643;28;19912;-73
2023/10/02 05:24:59;;;;;;;;;;;;;;;;;;5071055;28;20413;-73
2023/10/02 05:27:29;;;;;;;;;;;;;;;;;;5073224;28;20244;-72
2023/10/02 05:29:54;;;;;;;;;;;;;;;;;;5108900;28;19955;-73
2023/10/02 05:32:23;;;;;;;;;;;;;;;;;;5108373;28;19974;-74
2023/10/02 05:37:32;;;;;;;;;;;;;;;;;;5109041;28;20034;-72
2023/10/02 05:40:37;;;;;;;;;;;;;;;;;;5109628;28;20018;-73
2023/10/02 05:42:53;;;;;;;;;;;;;;;;;;5109108;28;20363;-73
2023/10/02 05:45:20;;;;;;;;;;;;;;;;;;5091233;28;19915;-73
2023/10/02 05:47:48;;;;;;;;;;;;;;;;;;5091664;28;19911;-73
2023/10/02 05:50:15;;;;;;;;;;;;;;;;;;5109702;28;19958;-73
2023/10/02 05:52:48;;;;;;;;;;;;;;;;;;5109486;28;19978;-73
2023/10/02 05:55:17;;;;;;;;;;;;;;;;;;5091445;28;19927;-72
2023/10/02 05:57:42;;;;;;;;;;;;;;;;;;5109821;28;19962;-73
2023/10/02 06:00:16;;;;;;;;;;;;;;;;;;5090935;28;20336;-73
2023/10/02 06:02:56;;;;;;;;;;;;;;;;;;5109656;28;19916;-72
2023/10/02 06:05:22;;;;;;;;;;;;;;;;;;5091361;28;20271;-73
2023/10/02 06:07:51;;;;;;;;;;;;;;;;;;5109528;28;19923;-73
2023/10/02 06:10:25;;;;;;;;;;;;;;;;;;5101615;28;20056;-73
2023/10/02 06:12:50;;;;;;;;;;;;;;;;;;5063165;28;19916;-74
2023/10/02 06:18:01;;;;;;;;;;;;;;;;;;5109778;28;19969;-73
2023/10/02 06:20:27;;;;;;;;;;;;;;;;;;5109111;28;19920;-72
2023/10/02 06:23:06;;;;;;;;;;;;;;;;;;5090926;28;19916;-73
2023/10/02 06:25:31;;;;;;;;;;;;;;;;;;5109340;28;19945;-74
2023/10/02 06:28:19;;;;;;;;;;;;;;;;;;5105944;28;20018;-73
2023/10/02 06:30:43;;;;;;;;;;;;;;;;;;5097242;28;19916;-73
2023/10/02 06:33:10;;;;;;;;;;;;;;;;;;5070613;28;20268;-73
2023/10/02 06:35:40;;;;;;;;;;;;;;;;;;5074724;28;19930;-73
2023/10/02 06:38:15;;;;;;;;;;;;;;;;;;5090148;28;19916;-75
2023/10/02 06:40:55;;;;;;;;;;;;;;;;;;5102692;28;19916;-75
2023/10/02 06:43:28;;;;;;;;;;;;;;;;;;5092086;28;19955;-76
2023/10/02 06:46:06;;;;;;;;;;;;;;;;;;5071516;28;19916;-75
2023/10/02 06:48:34;;;;;;;;;;;;;;;;;;5102017;28;19923;-75
2023/10/02 06:50:59;;;;;;;;;;;;;;;;;;5109265;28;19916;-77
2023/10/02 06:53:25;;;;;;;;;;;;;;;;;;5101785;28;19920;-75
2023/10/02 06:55:58;;;;;;;;;;;;;;;;;;5094914;28;20077;-74
2023/10/02 06:58:25;;;;;;;;;;;;;;;;;;5109072;28;19922;-75
2023/10/02 07:01:01;;;;;;;;;;;;;;;;;;5107825;28;19916;-76
2023/10/02 07:03:27;;;;;;;;;;;;;;;;;;5107368;28;20003;-75
2023/10/02 07:05:52;;;;;;;;;;;;;;;;;;5108245;28;19999;-76
2023/10/02 07:08:18;;;;;;;;;;;;;;;;;;5107537;28;19919;-75
2023/10/02 07:10:43;;;;;;;;;;;;;;;;;;5108554;28;19922;-75
2023/10/02 07:13:21;;;;;;;;;;;;;;;;;;5111499;28;20371;-74
2023/10/02 07:15:47;;;;;;;;;;;;;;;;;;5112096;28;19926;-75
2023/10/02 07:18:12;;;;;;;;;;;;;;;;;;5111690;28;19920;-77
2023/10/02 07:20:42;;;;;;;;;;;;;;;;;;5111618;28;19922;-75
2023/10/02 07:23:09;;;;;;;;;;;;;;;;;;5112299;28;19920;-75
2023/10/02 07:25:34;;;;;;;;;;;;;;;;;;5110538;28;19916;-75
2023/10/02 07:28:00;;;;;;;;;;;;;;;;;;5111043;28;20280;-75
2023/10/02 07:30:26;;;;;;;;;;;;;;;;;;5112203;28;20022;-75
2023/10/02 07:32:53;;;;;;;;;;;;;;;;;;5111437;28;20033;-76
2023/10/02 07:35:21;;;;;;;;;;;;;;;;;;5111465;28;19916;-75
2023/10/02 07:37:57;;;;;;;;;;;;;;;;;;5111801;28;19916;-75
2023/10/02 07:40:23;;;;;;;;;;;;;;;;;;5111086;28;19916;-75
2023/10/02 07:42:49;;;;;;;;;;;;;;;;;;5109976;28;20223;-74
2023/10/02 07:45:30;;;;;;;;;;;;;;;;;;5111314;28;19920;-77
2023/10/02 07:48:08;;;;;;;;;;;;;;;;;;5111576;28;19923;-76
2023/10/02 07:50:33;;;;;;;;;;;;;;;;;;5092765;28;20400;-76
2023/10/02 07:53:01;;;;;;;;;;;;;;;;;;5093359;28;20006;-77
2023/10/02 07:55:27;;;;;;;;;;;;;;;;;;5110987;28;19928;-77
2023/10/02 07:57:58;;;;;;;;;;;;;;;;;;5094013;28;19924;-77
2023/10/02 08:00:39;;;;;;;;;;;;;;;;;;5111499;28;19927;-75
2023/10/02 08:03:04;;;;;;;;;;;;;;;;;;5111163;28;19923;-77
2023/10/02 08:05:29;;;;;;;;;;;;;;;;;;5111272;28;19920;-77
2023/10/02 08:08:18;;;;;;;;;;;;;;;;;;5110838;28;20299;-76
2023/10/02 08:10:49;;;;;;;;;;;;;;;;;;5109257;28;20291;-75
2023/10/02 08:13:15;;;;;;;;;;;;;;;;;;5102243;28;19920;-75
2023/10/02 08:15:40;;;;;;;;;;;;;;;;;;5088645;28;20383;-76
2023/10/02 08:18:14;;;;;;;;;;;;;;;;;;5092973;28;20333;-76
2023/10/02 08:20:40;;;;;;;;;;;;;;;;;;5110483;28;19972;-76
2023/10/02 08:23:06;;;;;;;;;;;;;;;;;;5102547;28;20449;-75
2023/10/02 08:25:33;;;;;;;;;;;;;;;;;;5090620;28;19922;-76
2023/10/02 08:27:59;;;;;;;;;;;;;;;;;;5095871;28;19923;-75
2023/10/02 08:30:28;;;;;;;;;;;;;;;;;;5096594;28;20724;-77
2023/10/02 08:32:53;;;;;;;;;;;;;;;;;;5093165;28;19973;-76
2023/10/02 08:35:19;;;;;;;;;;;;;;;;;;5100819;28;20380;-76
2023/10/02 08:37:45;;;;;;;;;;;;;;;;;;5098673;28;19916;-76
2023/10/02 08:40:11;;;;;;;;;;;;;;;;;;5090199;28;19966;-75
2023/10/02 08:42:46;;;;;;;;;;;;;;;;;;5090000;28;19916;-76
2023/10/02 08:45:18;;;;;;;;;;;;;;;;;;5089964;28;19960;-77
2023/10/02 08:47:46;;;;;;;;;;;;;;;;;;5089974;28;19916;-76
2023/10/02 08:50:15;;;;;;;;;;;;;;;;;;5089627;28;19996;-75
2023/10/02 08:52:47;;;;;;;;;;;;;;;;;;5073042;28;19920;-75
2023/10/02 08:55:26;;;;;;;;;;;;;;;;;;5092223;28;20316;-74
2023/10/02 08:57:51;;;;;;;;;;;;;;;;;;5096809;28;19950;-77
2023/10/02 09:00:16;;;;;;;;;;;;;;;;;;5110605;28;20356;-75
2023/10/02 09:02:54;;;;;;;;;;;;;;;;;;5110114;28;19916;-75
2023/10/02 09:05:19;;;;;;;;;;;;;;;;;;5109589;28;19939;-78
2023/10/02 09:07:45;;;;;;;;;;;;;;;;;;5110241;28;20378;-78
2023/10/02 09:10:24;;;;;;;;;;;;;;;;;;5110343;28;20367;-76
2023/10/02 09:12:50;;;;;;;;;;;;;;;;;;5110228;28;19924;-76
2023/10/02 09:15:24;;;;;;;;;;;;;;;;;;5110022;28;19919;-77
2023/10/02 09:17:49;;;;;;;;;;;;;;;;;;5109566;28;19920;-79
2023/10/02 09:20:16;;;;;;;;;;;;;;;;;;5110344;28;20076;-81
2023/10/02 09:22:43;;;;;;;;;;;;;;;;;;5110152;28;19954;-76
2023/10/02 09:25:09;;;;;;;;;;;;;;;;;;5109791;28;20379;-76
2023/10/02 09:27:38;;;;;;;;;;;;;;;;;;5109940;28;19985;-76
2023/10/02 09:30:17;;;;;;;;;;;;;;;;;;5109502;28;19916;-76
2023/10/02 09:32:52;;;;;;;;;;;;;;;;;;5109743;28;19916;-75
2023/10/02 09:35:22;;;;;;;;;;;;;;;;;;5108914;28;19916;-75
2023/10/02 09:37:56;;;;;;;;;;;;;;;;;;5091332;28;19916;-75
2023/10/02 09:40:21;;;;;;;;;;;;;;;;;;5109242;28;19916;-75
2023/10/02 09:42:48;;;;;;;;;;;;;;;;;;5109896;28;19977;-76
2023/10/02 09:45:14;;;;;;;;;;;;;;;;;;5109819;28;19915;-75
2023/10/02 09:47:42;;;;;;;;;;;;;;;;;;5090657;28;19919;-75
2023/10/02 09:50:10;;;;;;;;;;;;;;;;;;5091155;28;19919;-75
2023/10/02 09:52:39;;;;;;;;;;;;;;;;;;5109772;28;19927;-75
2023/10/02 09:55:05;;;;;;;;;;;;;;;;;;5109212;28;19920;-76
2023/10/02 09:57:31;;;;;;;;;;;;;;;;;;5108925;28;19930;-76
2023/10/02 09:59:57;;;;;;;;;;;;;;;;;;5109246;28;19915;-75
2023/10/02 10:04:47;;;;;;;;;;;;;;;;;;5109048;28;19916;-75
2023/10/02 10:07:35;;;;;;;;;;;;;;;;;;5109048;28;19916;-75
2023/10/02 10:09:58;;;;;;;;;;;;;;;;;;5108837;28;20299;-76
2023/10/02 10:12:50;;;;;;;;;;;;;;;;;;5108556;28;19920;-76
2023/10/02 10:15:23;;;;;;;;;;;;;;;;;;5102485;28;19924;-75
2023/10/02 10:17:51;;;;;;;;;;;;;;;;;;5108806;28;20291;-76
2023/10/02 10:20:20;;;;;;;;;;;;;;;;;;5108836;28;19922;-74
2023/10/02 10:22:55;;;;;;;;;;;;;;;;;;5107919;28;19919;-75
2023/10/02 10:27:54;;;;;;;;;;;;;;;;;;5108975;28;20385;-75
2023/10/02 10:32:48;;;;;;;;;;;;;;;;;;5088512;28;19916;-74
2023/10/02 10:35:15;;;;;;;;;;;;;;;;;;5088283;28;19923;-75
2023/10/02 10:37:41;;;;;;;;;;;;;;;;;;5088271;28;19926;-75
2023/10/02 10:40:40;;;;;;;;;;;;;;;;;;5087320;28;19924;-73
2023/10/02 10:42:51;;;;;;;;;;;;;;;;;;5088269;28;19920;-76
2023/10/02 10:45:18;;;;;;;;;;;;;;;;;;5089422;28;20038;-75
2023/10/02 10:47:45;;;;;;;;;;;;;;;;;;5073991;28;19923;-74
2023/10/02 10:50:28;;;;;;;;;;;;;;;;;;5073941;28;19920;-74
2023/10/02 10:52:54;;;;;;;;;;;;;;;;;;5094971;28;19956;-74
2023/10/02 10:55:20;;;;;;;;;;;;;;;;;;5094359;28;20348;-74
2023/10/02 10:57:51;;;;;;;;;;;;;;;;;;5109085;28;19916;-74
2023/10/02 11:00:26;;;;;;;;;;;;;;;;;;5112129;28;19916;-73
2023/10/02 11:02:52;;;;;;;;;;;;;;;;;;5112860;28;19919;-74
2023/10/02 11:05:17;;;;;;;;;;;;;;;;;;5108035;28;19996;-74
2023/10/02 11:07:46;;;;;;;;;;;;;;;;;;5105620;28;19973;-75
2023/10/02 11:10:16;;;;;;;;;;;;;;;;;;5110025;28;19926;-75
2023/10/02 11:12:54;;;;;;;;;;;;;;;;;;5097565;28;19919;-75
2023/10/02 11:15:44;;;;;;;;;;;;;;;;;;5099418;28;20290;-75
2023/10/02 11:18:18;;;;;;;;;;;;;;;;;;5100924;28;19926;-74
2023/10/02 11:20:43;;;;;;;;;;;;;;;;;;5104309;28;20163;-75
2023/10/02 11:23:09;;;;;;;;;;;;;;;;;;5107190;28;19916;-74
2023/10/02 11:25:39;;;;;;;;;;;;;;;;;;5092243;28;20389;-72
2023/10/02 11:28:05;;;;;;;;;;;;;;;;;;5096567;28;20010;-75
2023/10/02 11:30:31;;;;;;;;;;;;;;;;;;5111439;28;19980;-74
2023/10/02 11:33:07;;;;;;;;;;;;;;;;;;5109271;28;20466;-74
2023/10/02 11:35:39;;;;;;;;;;;;;;;;;;5110283;28;19923;-74
2023/10/02 11:38:04;;;;;;;;;;;;;;;;;;5107123;28;20407;-73
2023/10/02 11:40:29;;;;;;;;;;;;;;;;;;5110695;28;19967;-74
2023/10/02 11:42:59;;;;;;;;;;;;;;;;;;5111148;28;20403;-73
2023/10/02 11:45:24;;;;;;;;;;;;;;;;;;5109807;28;19942;-72
2023/10/02 11:47:50;;;;;;;;;;;;;;;;;;5107665;28;20364;-73
2023/10/02 11:50:16;;;;;;;;;;;;;;;;;;5094009;28;19919;-73
2023/10/02 11:52:41;;;;;;;;;;;;;;;;;;5094654;28;19924;-73
2023/10/02 11:55:06;;;;;;;;;;;;;;;;;;5094061;28;20436;-74
2023/10/02 11:57:33;;;;;;;;;;;;;;;;;;5092171;28;19920;-74
2023/10/02 11:59:58;;;;;;;;;;;;;;;;;;5111292;28;19915;-74
2023/10/02 12:02:25;;;;;;;;;;;;;;;;;;5091476;28;19916;-73
2023/10/02 12:04:52;;;;;;;;;;;;;;;;;;5104521;28;19926;-73
2023/10/02 12:07:17;;;;;;;;;;;;;;;;;;5111036;28;20393;-75
2023/10/02 12:09:44;;;;;;;;;;;;;;;;;;5110723;28;19920;-74
2023/10/02 12:12:11;;;;;;;;;;;;;;;;;;5090635;28;20325;-75
2023/10/02 12:14:37;;;;;;;;;;;;;;;;;;5110423;28;19920;-73
2023/10/02 12:17:02;;;;;;;;;;;;;;;;;;5102391;28;20384;-73
2023/10/02 12:19:36;;;;;;;;;;;;;;;;;;5104067;28;19949;-73
2023/10/02 12:22:05;;;;;;;;;;;;;;;;;;5102072;28;19916;-73
2023/10/02 12:24:31;;;;;;;;;;;;;;;;;;5100140;28;19923;-74
2023/10/02 12:26:56;;;;;;;;;;;;;;;;;;5110318;28;20476;-74
2023/10/02 12:29:22;;;;;;;;;;;;;;;;;;5110617;28;19916;-74
2023/10/02 12:31:48;;;;;;;;;;;;;;;;;;5100976;28;20773;-74
2023/10/02 12:34:13;;;;;;;;;;;;;;;;;;5107909;28;19915;-74
2023/10/02 12:36:39;;;;;;;;;;;;;;;;;;5088388;28;19923;-73
2023/10/02 12:39:09;;;;;;;;;;;;;;;;;;5102402;28;19920;-75
2023/10/02 12:41:35;;;;;;;;;;;;;;;;;;5084907;28;19916;-72
2023/10/02 12:44:02;;;;;;;;;;;;;;;;;;5072235;28;20488;-74
2023/10/02 12:46:27;;;;;;;;;;;;;;;;;;5099187;28;19930;-74
2023/10/02 12:48:55;;;;;;;;;;;;;;;;;;5090331;28;19920;-74
2023/10/02 12:51:20;;;;;;;;;;;;;;;;;;5110836;28;19937;-74
2023/10/02 12:53:46;;;;;;;;;;;;;;;;;;5111394;28;19915;-73
2023/10/02 12:56:11;;;;;;;;;;;;;;;;;;5108264;28;19928;-75
2023/10/02 12:58:37;;;;;;;;;;;;;;;;;;5099145;28;20379;-74
2023/10/02 13:01:02;;;;;;;;;;;;;;;;;;5108211;28;19926;-73
2023/10/02 13:03:28;;;;;;;;;;;;;;;;;;5108085;28;19934;-74
2023/10/02 13:05:56;;;;;;;;;;;;;;;;;;5107891;28;19939;-74
2023/10/02 13:08:21;;;;;;;;;;;;;;;;;;5108078;28;20298;-74
2023/10/02 13:10:48;;;;;;;;;;;;;;;;;;5106480;28;19961;-73
2023/10/02 13:13:14;;;;;;;;;;;;;;;;;;5107231;28;19919;-74
2023/10/02 13:15:52;;;;;;;;;;;;;;;;;;5105602;28;20298;-73
2023/10/02 13:18:18;;;;;;;;;;;;;;;;;;5108380;28;19927;-74
2023/10/02 13:20:43;;;;;;;;;;;;;;;;;;5107271;28;19911;-73
2023/10/02 13:23:09;;;;;;;;;;;;;;;;;;5107777;28;20383;-73
2023/10/02 13:25:35;;;;;;;;;;;;;;;;;;5107894;28;19964;-73
2023/10/02 13:28:01;;;;;;;;;;;;;;;;;;5106874;28;20183;-74
2023/10/02 13:30:30;;;;;;;;;;;;;;;;;;5107444;28;19920;-74
2023/10/02 13:32:55;;;;;;;;;;;;;;;;;;5106772;28;19915;-73
2023/10/02 13:35:21;;;;;;;;;;;;;;;;;;5106975;28;19922;-74
2023/10/02 13:37:48;;;;;;;;;;;;;;;;;;5105545;28;20200;-74
2023/10/02 13:40:26;;;;;;;;;;;;;;;;;;5106863;28;19926;-74
2023/10/02 13:42:51;;;;;;;;;;;;;;;;;;5107533;28;20048;-75
2023/10/02 13:45:19;;;;;;;;;;;;;;;;;;5107267;28;20014;-73
2023/10/02 13:47:44;;;;;;;;;;;;;;;;;;5107415;28;19916;-74
2023/10/02 13:50:11;;;;;;;;;;;;;;;;;;5107481;28;20287;-74
2023/10/02 13:52:37;;;;;;;;;;;;;;;;;;5106805;28;20455;-74
2023/10/02 13:55:19;;;;;;;;;;;;;;;;;;5105872;28;20540;-73
2023/10/02 13:57:44;;;;;;;;;;;;;;;;;;5106914;28;19963;-73
2023/10/02 14:00:10;;;;;;;;;;;;;;;;;;5107215;28;20495;-74
2023/10/02 14:02:35;;;;;;;;;;;;;;;;;;5105558;28;19958;-73
2023/10/02 14:05:01;;;;;;;;;;;;;;;;;;5101754;28;19916;-73
2023/10/02 14:07:26;;;;;;;;;;;;;;;;;;5107629;28;19920;-74
2023/10/02 14:09:52;;;;;;;;;;;;;;;;;;5087648;28;19916;-73
2023/10/02 14:12:17;;;;;;;;;;;;;;;;;;5102907;28;20452;-74
2023/10/02 14:14:42;;;;;;;;;;;;;;;;;;5091813;28;19919;-74
2023/10/02 14:17:09;;;;;;;;;;;;;;;;;;5095201;28;19924;-74
2023/10/02 14:19:34;;;;;;;;;;;;;;;;;;5063955;28;19916;-74
2023/10/02 14:22:00;;;;;;;;;;;;;;;;;;5106177;28;20022;-74
2023/10/02 14:24:26;;;;;;;;;;;;;;;;;;5108558;28;19916;-73
2023/10/02 14:26:51;;;;;;;;;;;;;;;;;;5106954;28;19927;-71
2023/10/02 14:29:16;;;;;;;;;;;;;;;;;;5097652;28;20425;-72
2023/10/02 14:31:44;;;;;;;;;;;;;;;;;;5098656;28;19948;-72
2023/10/02 14:34:09;;;;;;;;;;;;;;;;;;5102055;28;19920;-74
2023/10/02 14:36:34;;;;;;;;;;;;;;;;;;5109756;28;19968;-73
2023/10/02 14:39:03;;;;;;;;;;;;;;;;;;5090099;28;19923;-73
2023/10/02 14:41:28;;;;;;;;;;;;;;;;;;5103727;28;19962;-73
2023/10/02 14:43:54;;;;;;;;;;;;;;;;;;5090290;28;20363;-73
2023/10/02 14:46:19;;;;;;;;;;;;;;;;;;5072763;28;19941;-73
2023/10/02 14:48:44;;;;;;;;;;;;;;;;;;5091000;28;19916;-73
2023/10/02 14:51:11;;;;;;;;;;;;;;;;;;5073095;28;20375;-72
2023/10/02 14:53:37;;;;;;;;;;;;;;;;;;5091485;28;19916;-74
2023/10/02 14:56:02;;;;;;;;;;;;;;;;;;5091207;28;19931;-73
2023/10/02 14:58:28;;;;;;;;;;;;;;;;;;5090736;28;20002;-72
2023/10/02 15:00:54;;;;;;;;;;;;;;;;;;5092210;28;19977;-73
2023/10/02 15:03:19;;;;;;;;;;;;;;;;;;5091826;28;19978;-74
2023/10/02 15:05:45;;;;;;;;;;;;;;;;;;5092097;28;20007;-73
2023/10/02 15:08:13;;;;;;;;;;;;;;;;;;5091789;28;19916;-73
2023/10/02 15:10:38;;;;;;;;;;;;;;;;;;5091788;28;20342;-73
2023/10/02 15:13:04;;;;;;;;;;;;;;;;;;5073361;28;19916;-72
2023/10/02 15:15:29;;;;;;;;;;;;;;;;;;5091684;28;19939;-73
2023/10/02 15:17:54;;;;;;;;;;;;;;;;;;5091831;28;19916;-72
2023/10/02 15:20:21;;;;;;;;;;;;;;;;;;5091701;28;20375;-73
2023/10/02 15:22:47;;;;;;;;;;;;;;;;;;5091723;28;20380;-71
2023/10/02 15:25:14;;;;;;;;;;;;;;;;;;5091695;28;20424;-72
2023/10/02 15:27:39;;;;;;;;;;;;;;;;;;5091533;28;19916;-72
2023/10/02 15:30:05;;;;;;;;;;;;;;;;;;5091490;28;20397;-73
2023/10/02 15:32:31;;;;;;;;;;;;;;;;;;5090107;28;19958;-73
2023/10/02 15:34:56;;;;;;;;;;;;;;;;;;5091559;28;19955;-72
2023/10/02 15:37:24;;;;;;;;;;;;;;;;;;5091026;28;20359;-72
2023/10/02 15:39:49;;;;;;;;;;;;;;;;;;5091347;28;20430;-73
2023/10/02 15:42:16;;;;;;;;;;;;;;;;;;5091257;28;20015;-73
2023/10/02 15:44:42;;;;;;;;;;;;;;;;;;5091574;28;19920;-72
2023/10/02 15:47:07;;;;;;;;;;;;;;;;;;5073226;28;20002;-72
2023/10/02 15:49:32;;;;;;;;;;;;;;;;;;5091691;28;19923;-72
2023/10/02 15:52:00;;;;;;;;;;;;;;;;;;5091060;28;20014;-73
2023/10/02 15:54:25;;;;;;;;;;;;;;;;;;5090735;28;20368;-73
2023/10/02 15:56:51;;;;;;;;;;;;;;;;;;5091192;28;19965;-73
2023/10/02 15:59:16;;;;;;;;;;;;;;;;;;5090932;28;19922;-73
2023/10/02 16:01:42;;;;;;;;;;;;;;;;;;5091249;28;19916;-73
2023/10/02 16:04:07;;;;;;;;;;;;;;;;;;5091087;28;19948;-72
2023/10/02 16:06:33;;;;;;;;;;;;;;;;;;5090046;28;19916;-72
2023/10/02 16:08:58;;;;;;;;;;;;;;;;;;5072694;28;19927;-74
2023/10/02 16:11:25;;;;;;;;;;;;;;;;;;5089176;28;19961;-72
2023/10/02 16:13:52;;;;;;;;;;;;;;;;;;5090401;28;19919;-72
2023/10/02 16:16:17;;;;;;;;;;;;;;;;;;5091034;28;20355;-72
2023/10/02 16:18:43;;;;;;;;;;;;;;;;;;5072120;28;19912;-73
2023/10/02 16:21:09;;;;;;;;;;;;;;;;;;5071725;28;19908;-72
2023/10/02 16:23:39;;;;;;;;;;;;;;;;;;5090001;28;19964;-71
2023/10/02 16:26:05;;;;;;;;;;;;;;;;;;5089821;28;19965;-72
2023/10/02 16:28:33;;;;;;;;;;;;;;;;;;5090988;28;20343;-72
2023/10/02 16:30:58;;;;;;;;;;;;;;;;;;5090870;28;19919;-72
2023/10/02 16:33:24;;;;;;;;;;;;;;;;;;5090468;28;19920;-72
2023/10/02 16:35:49;;;;;;;;;;;;;;;;;;5090180;28;19920;-73
2023/10/02 16:38:15;;;;;;;;;;;;;;;;;;5090781;28;20091;-73
2023/10/02 16:40:40;;;;;;;;;;;;;;;;;;5090403;28;19927;-72
2023/10/02 16:43:06;;;;;;;;;;;;;;;;;;5090351;28;19924;-72
2023/10/02 16:45:31;;;;;;;;;;;;;;;;;;5090214;28;19999;-73
2023/10/02 16:48:01;;;;;;;;;;;;;;;;;;5090723;28;19916;-73
2023/10/02 16:50:28;;;;;;;;;;;;;;;;;;5072437;28;19923;-72
2023/10/02 16:52:53;;;;;;;;;;;;;;;;;;5091080;28;20408;-74
2023/10/02 16:55:18;;;;;;;;;;;;;;;;;;5090546;28;20019;-73
2023/10/02 16:57:45;;;;;;;;;;;;;;;;;;5089014;28;19927;-72
2023/10/02 17:00:14;;;;;;;;;;;;;;;;;;5089906;28;20382;-73
2023/10/02 17:02:40;;;;;;;;;;;;;;;;;;5097246;28;20291;-72
2023/10/02 17:05:05;;;;;;;;;;;;;;;;;;5110798;28;20346;-73
2023/10/02 17:07:30;;;;;;;;;;;;;;;;;;5110761;28;19969;-72
2023/10/02 17:09:56;;;;;;;;;;;;;;;;;;5109449;28;20428;-72
2023/10/02 17:12:21;;;;;;;;;;;;;;;;;;5115412;28;19919;-74
2023/10/02 17:14:47;;;;;;;;;;;;;;;;;;5113951;28;19941;-74
2023/10/02 17:17:12;;;;;;;;;;;;;;;;;;5110189;28;19928;-74
2023/10/02 17:19:37;;;;;;;;;;;;;;;;;;5110500;28;19978;-73
2023/10/02 17:22:02;;;;;;;;;;;;;;;;;;5110189;28;19922;-72